Time;durP1;ratioP1;P1;durP2;ratioP2;P2;SDS_P1;SDS_P2;PMS_P1;PMS_P2;Temp;Humidity;BMP_temperature;BMP_pressure;BME280_temperature;BME280_humidity;BME280_pressure;Samples;Min_cycle;Max_cycle;Signal;HPM_P1;HPM_P2
2022/12/06 00:01:39;;;;;;;7.50;2.70;;;;;;;-7.04;57.16;101050.70;24505;1333;3049164;-64
2022/12/06 00:04:10;;;;;;;6.50;2.20;;;;;;;-6.99;56.91;101053.46;24471;1333;3026896;-64
2022/12/06 00:06:46;;;;;;;6.30;2.90;;;;;;;-7.12;57.13;101047.36;24530;1334;3027162;-61
2022/12/06 00:09:26;;;;;;;5.70;2.20;;;;;;;-7.05;56.97;101048.29;24524;1324;3057844;-62
2022/12/06 00:11:56;;;;;;;7.60;3.20;;;;;;;-7.05;57.01;101047.11;24530;1333;3054878;-63
2022/12/06 00:14:26;;;;;;;7.70;2.40;;;;;;;-7.18;57.38;101045.44;24516;1323;3028827;-61
2022/12/06 00:16:55;;;;;;;7.70;2.60;;;;;;;-7.20;57.30;101045.22;24508;1335;3026546;-63
2022/12/06 00:19:24;;;;;;;9.20;2.70;;;;;;;-7.31;57.54;101044.48;24509;1326;3026045;-64
2022/12/06 00:21:53;;;;;;;11.10;2.60;;;;;;;-7.31;57.84;101040.04;24515;1337;3052707;-62
2022/12/06 00:24:22;;;;;;;6.50;2.60;;;;;;;-7.30;57.92;101041.63;24444;1324;3028428;-62
2022/12/06 00:26:53;;;;;;;6.70;2.70;;;;;;;-7.32;57.82;101041.54;24490;1333;3052449;-63
2022/12/06 00:29:22;;;;;;;8.60;2.40;;;;;;;-7.30;57.79;101035.15;24462;1334;3028446;-62
2022/12/06 00:31:51;;;;;;;10.40;2.80;;;;;;;-7.29;57.73;101033.30;24516;1324;3028001;-62
2022/12/06 00:34:20;;;;;;;6.40;2.60;;;;;;;-7.23;57.48;101032.83;24467;1333;3052380;-61
2022/12/06 00:36:49;;;;;;;6.60;2.40;;;;;;;-7.39;58.05;101028.70;24565;1333;3025881;-62
2022/12/06 00:39:18;;;;;;;8.00;2.50;;;;;;;-7.47;58.00;101031.63;24472;1324;3055886;-61
2022/12/06 00:41:47;;;;;;;5.30;2.80;;;;;;;-7.36;58.08;101027.77;24488;1324;3025655;-60
2022/12/06 00:44:17;;;;;;;4.80;1.90;;;;;;;-7.36;58.01;101025.56;24512;1329;3049989;-63
2022/12/06 00:46:46;;;;;;;5.20;2.10;;;;;;;-7.37;58.17;101023.83;24497;1316;3027473;-63
2022/12/06 00:49:15;;;;;;;4.00;2.00;;;;;;;-7.43;57.86;101018.50;24506;1334;3068722;-62
2022/12/06 00:51:44;;;;;;;7.10;2.10;;;;;;;-7.53;58.63;101019.15;24534;1340;3030914;-63
2022/12/06 00:54:13;;;;;;;7.70;2.40;;;;;;;-7.42;58.07;101017.36;24529;1324;3028810;-62
2022/12/06 00:56:43;;;;;;;6.70;2.40;;;;;;;-7.36;57.48;101016.35;24495;1323;3068653;-62
2022/12/06 00:59:12;;;;;;;5.20;2.30;;;;;;;-7.49;58.22;101017.41;24544;1340;3026344;-61
2022/12/06 01:01:41;;;;;;;6.90;2.20;;;;;;;-7.60;58.57;101014.13;24601;1324;3025932;-62
2022/12/06 01:04:10;;;;;;;8.10;2.70;;;;;;;-7.58;58.47;101009.73;24561;1334;3068749;-63
2022/12/06 01:06:39;;;;;;;4.90;1.90;;;;;;;-7.59;58.49;101008.70;24603;1316;3028588;-62
2022/12/06 01:09:09;;;;;;;5.70;1.90;;;;;;;-7.54;58.44;101003.09;24614;1333;3047709;-63
2022/12/06 01:11:38;;;;;;;4.40;1.80;;;;;;;-7.48;58.09;101005.54;24536;1330;3026365;-62
2022/12/06 01:14:07;;;;;;;5.20;2.00;;;;;;;-7.55;58.53;101006.14;24567;1333;3028229;-63
2022/12/06 01:16:35;;;;;;;5.90;2.00;;;;;;;-7.50;58.19;101007.86;24532;1333;3048470;-61
2022/12/06 01:19:05;;;;;;;4.40;1.90;;;;;;;-7.54;58.22;101009.72;24474;1334;3028200;-61
2022/12/06 01:21:34;;;;;;;3.30;1.80;;;;;;;-7.72;58.54;101005.65;24504;1334;3052397;-63
2022/12/06 01:24:04;;;;;;;3.50;1.80;;;;;;;-7.64;58.72;101005.29;24535;1324;3028745;-63
2022/12/06 01:26:33;;;;;;;5.30;2.00;;;;;;;-7.64;58.70;100999.16;24559;1324;3051493;-63
2022/12/06 01:29:02;;;;;;;6.10;2.90;;;;;;;-7.65;58.65;101000.62;24496;1326;3026528;-64
2022/12/06 01:31:32;;;;;;;7.30;2.30;;;;;;;-7.56;58.80;100995.70;24539;1330;3026570;-63
2022/12/06 01:34:01;;;;;;;6.30;2.20;;;;;;;-7.63;58.58;100991.71;24517;1333;3028167;-63
2022/12/06 01:36:30;;;;;;;6.70;2.40;;;;;;;-7.66;58.60;100992.11;24517;1339;3052333;-64
2022/12/06 01:39:05;;;;;;;6.40;2.40;;;;;;;-7.52;58.45;100989.55;24545;1334;3026160;-61
2022/12/06 01:41:34;;;;;;;5.60;1.80;;;;;;;-7.63;58.10;100993.41;24457;1334;3069066;-61
2022/12/06 01:44:03;;;;;;;7.50;2.40;;;;;;;-7.60;58.22;100987.38;24531;1324;3026433;-61
2022/12/06 01:46:41;;;;;;;4.90;2.20;;;;;;;-7.60;58.38;100988.92;24537;1340;3049451;-62
2022/12/06 01:49:10;;;;;;;8.40;2.50;;;;;;;-7.70;58.61;100981.91;24508;1334;3068898;-63
2022/12/06 01:51:42;;;;;;;6.20;1.90;;;;;;;-7.66;58.52;100981.02;24485;1334;3028323;-61
2022/12/06 01:54:12;;;;;;;7.80;2.40;;;;;;;-7.72;58.62;100978.59;24545;1332;3026105;-62
2022/12/06 01:56:41;;;;;;;7.30;2.10;;;;;;;-7.75;58.54;100979.67;24495;1330;3027726;-63
2022/12/06 01:59:10;;;;;;;4.90;1.80;;;;;;;-7.79;58.73;100980.89;24514;1324;3025239;-61
2022/12/06 02:01:39;;;;;;;3.60;1.90;;;;;;;-7.81;58.93;100977.40;24502;1334;3057026;-62
2022/12/06 02:04:08;;;;;;;7.40;2.60;;;;;;;-7.79;58.61;100971.70;24474;1334;3026743;-63
2022/12/06 02:06:38;;;;;;;12.20;1.70;;;;;;;-7.76;59.07;100973.70;24466;1329;3049950;-62
2022/12/06 02:09:08;;;;;;;3.90;1.50;;;;;;;-7.81;58.84;100972.64;24650;1340;3028384;-60
2022/12/06 02:11:38;;;;;;;5.20;2.20;;;;;;;-7.82;58.53;100967.20;24732;1330;3025933;-62
2022/12/06 02:14:12;;;;;;;4.50;1.70;;;;;;;-7.75;58.37;100968.65;24626;1331;3028555;-62
2022/12/06 02:16:58;;;;;;;4.60;1.90;;;;;;;-7.74;58.02;100972.57;24504;1333;3052067;-61
2022/12/06 02:19:32;;;;;;;5.50;1.50;;;;;;;-7.74;58.35;100973.25;24552;1330;3052815;-62
2022/12/06 02:22:25;;;;;;;5.30;2.10;;;;;;;-7.70;57.79;100973.73;24554;1333;3049179;-61
2022/12/06 02:25:23;;;;;;;5.70;1.60;;;;;;;-7.65;57.85;100966.98;24389;1334;3068758;-62
2022/12/06 02:27:57;;;;;;;6.60;1.90;;;;;;;-7.80;57.99;100966.05;24502;1327;3049894;-63
2022/12/06 02:30:42;;;;;;;7.50;2.20;;;;;;;-7.75;58.04;100959.63;24541;1332;3025796;-64
2022/12/06 02:33:21;;;;;;;3.90;1.30;;;;;;;-7.75;57.88;100959.59;24556;1324;3053213;-63
2022/12/06 02:36:04;;;;;;;6.10;1.80;;;;;;;-7.75;57.42;100964.04;24506;1340;3053254;-62
2022/12/06 02:38:46;;;;;;;4.50;1.50;;;;;;;-7.79;57.70;100966.61;24597;1330;3053156;-64
2022/12/06 02:41:22;;;;;;;4.10;1.80;;;;;;;-7.74;57.50;100966.42;24624;1324;3052125;-64
2022/12/06 02:44:06;;;;;;;4.70;1.80;;;;;;;-7.78;57.62;100966.13;24555;1334;3049534;-64
2022/12/06 02:46:36;;;;;;;3.30;1.40;;;;;;;-7.75;57.17;100963.70;24637;1333;3069662;-65
2022/12/06 02:49:05;;;;;;;6.70;1.30;;;;;;;-7.75;57.10;100965.55;24596;1334;3028844;-65
2022/12/06 02:51:35;;;;;;;5.10;1.80;;;;;;;-7.63;56.82;100964.48;24559;1342;3025851;-63
2022/12/06 02:54:06;;;;;;;3.90;1.70;;;;;;;-7.78;57.19;100966.80;24459;1340;3026589;-66
2022/12/06 02:56:35;;;;;;;4.10;1.50;;;;;;;-7.73;57.22;100961.04;24571;1334;3049978;-63
2022/12/06 02:59:04;;;;;;;5.50;1.80;;;;;;;-7.69;57.00;100962.70;24504;1331;3028358;-60
2022/12/06 03:01:33;;;;;;;3.90;1.50;;;;;;;-7.61;56.41;100957.07;24558;1334;3068872;-60
2022/12/06 03:04:48;;;;;;;3.60;1.60;;;;;;;-7.77;56.97;100956.15;24469;1334;3026659;-63
2022/12/06 03:07:17;;;;;;;4.90;2.00;;;;;;;-7.78;57.18;100952.86;24533;1334;3057021;-65
2022/12/06 03:10:11;;;;;;;4.50;1.70;;;;;;;-7.77;56.79;100954.60;24474;1324;3025863;-63
2022/12/06 03:13:02;;;;;;;5.00;1.20;;;;;;;-7.76;57.05;100949.71;24488;1335;3049956;-62
2022/12/06 03:15:56;;;;;;;2.80;1.80;;;;;;;-7.85;57.04;100948.89;24502;1332;3056707;-65
2022/12/06 03:18:35;;;;;;;3.80;1.80;;;;;;;-7.90;56.82;100946.95;24511;1334;3052703;-65
2022/12/06 03:21:26;;;;;;;4.90;1.50;;;;;;;-7.84;57.18;100945.83;24458;1340;3052795;-63
2022/12/06 03:23:55;;;;;;;2.20;1.20;;;;;;;-7.87;57.17;100949.79;24505;1333;3052784;-63
2022/12/06 03:26:27;;;;;;;5.90;2.20;;;;;;;-7.87;57.14;100950.33;24505;1324;3028842;-64
2022/12/06 03:28:57;;;;;;;2.20;1.10;;;;;;;-7.93;57.19;100948.39;24502;1338;3053035;-64
2022/12/06 03:31:27;;;;;;;4.00;2.10;;;;;;;-7.89;57.76;100946.00;24420;1336;3025872;-64
2022/12/06 03:33:59;;;;;;;2.40;1.20;;;;;;;-7.96;57.98;100944.20;24449;1334;3028235;-62
2022/12/06 03:36:29;;;;;;;2.90;1.60;;;;;;;-7.92;57.61;100942.64;24467;1335;3028427;-62
2022/12/06 03:39:03;;;;;;;4.50;2.20;;;;;;;-7.87;57.82;100944.69;24516;1326;3025726;-60
2022/12/06 03:41:36;;;;;;;4.80;1.70;;;;;;;-7.96;57.83;100942.31;24451;1334;3052846;-64
2022/12/06 03:44:05;;;;;;;;;;;;;;;-7.98;57.82;100940.70;24533;1337;3048998;-63
2022/12/06 03:46:36;;;;;;;4.50;1.20;;;;;;;-8.07;57.96;100944.27;24468;1332;3027888;-62
2022/12/06 03:49:13;;;;;;;4.50;1.80;;;;;;;-7.89;57.87;100942.91;24496;1334;3053059;-64
2022/12/06 03:51:43;;;;;;;4.60;1.80;;;;;;;-8.02;57.88;100938.02;24494;1330;3049282;-62
2022/12/06 03:54:12;;;;;;;3.80;1.70;;;;;;;-8.00;58.31;100939.48;24447;1327;3028820;-64
2022/12/06 03:56:41;;;;;;;5.90;1.80;;;;;;;-7.91;57.66;100940.48;24521;1330;3052944;-64
2022/12/06 03:59:10;;;;;;;6.20;1.50;;;;;;;-7.99;58.08;100936.77;24562;1324;3026187;-63
2022/12/06 04:01:39;;;;;;;8.60;1.90;;;;;;;-8.08;58.45;100937.11;24481;1336;3051607;-65
2022/12/06 04:04:09;;;;;;;3.60;1.80;;;;;;;-8.10;58.51;100933.80;24498;1333;3028273;-65
2022/12/06 04:06:38;;;;;;;4.80;2.00;;;;;;;-8.14;58.49;100929.23;24531;1326;3052953;-64
2022/12/06 04:11:54;;;;;;;7.40;1.60;;;;;;;-8.17;58.80;100921.27;24465;1324;3053993;-63
2022/12/06 04:14:31;;;;;;;5.40;2.00;;;;;;;-8.16;58.60;100922.84;24526;1329;3028563;-65
2022/12/06 04:19:48;;;;;;;4.50;1.40;;;;;;;-8.05;57.85;100916.27;24512;1323;3053411;-65
2022/12/06 04:25:05;;;;;;;8.90;1.90;;;;;;;-8.03;57.33;100914.67;24461;1337;3056439;-64
2022/12/06 04:38:45;;;;;;;4.30;1.80;;;;;;;-8.25;58.60;100911.79;24553;1337;3049735;-64
2022/12/06 04:43:40;;;;;;;4.40;1.90;;;;;;;-8.29;58.46;100910.12;24503;1329;3025978;-65
2022/12/06 04:44:03;;;;;;;4.30;1.70;;;;;;;-8.36;58.76;100910.33;24467;1329;3053265;-63
2022/12/06 04:46:33;;;;;;;4.00;1.80;;;;;;;-8.37;58.93;100906.56;24512;1337;3028875;-64
2022/12/06 04:49:02;;;;;;;3.10;1.70;;;;;;;-8.32;58.72;100904.20;24513;1330;3026360;-64
2022/12/06 04:51:31;;;;;;;1.80;1.30;;;;;;;-8.30;58.52;100905.80;24522;1337;3052952;-64
2022/12/06 04:54:00;;;;;;;4.20;1.90;;;;;;;-8.27;58.80;100903.75;24493;1338;3028986;-65
2022/12/06 04:56:30;;;;;;;7.00;1.90;;;;;;;-8.28;58.27;100903.68;24524;1334;3026438;-65
2022/12/06 04:58:59;;;;;;;3.70;1.90;;;;;;;-8.24;58.11;100903.66;24492;1324;3052870;-63
2022/12/06 05:01:27;;;;;;;4.30;2.30;;;;;;;-8.27;58.67;100899.29;24504;1333;3027388;-65
2022/12/06 05:03:56;;;;;;;3.40;1.50;;;;;;;-8.28;58.68;100898.95;24489;1333;3051975;-64
2022/12/06 05:06:26;;;;;;;3.50;1.50;;;;;;;-8.33;58.42;100902.80;24531;1334;3028649;-63
2022/12/06 05:08:55;;;;;;;5.90;1.80;;;;;;;-8.34;58.15;100902.60;24506;1337;3052594;-63
2022/12/06 05:11:23;;;;;;;2.70;1.40;;;;;;;-8.28;58.24;100904.38;24515;1334;3025835;-63
2022/12/06 05:13:52;;;;;;;3.20;1.90;;;;;;;-8.23;57.74;100904.04;24486;1333;3051639;-64
2022/12/06 05:16:21;;;;;;;5.30;2.20;;;;;;;-8.25;57.81;100902.45;24542;1329;3026362;-62
2022/12/06 05:18:50;;;;;;;5.20;1.90;;;;;;;-8.29;58.34;100903.13;24476;1340;3055653;-64
2022/12/06 05:21:21;;;;;;;5.20;1.90;;;;;;;-8.33;58.38;100906.90;24520;1334;3028879;-63
2022/12/06 05:23:54;;;;;;;4.50;1.50;;;;;;;-8.24;58.38;100898.59;24483;1339;3049286;-62
2022/12/06 05:26:25;;;;;;;6.10;2.00;;;;;;;-8.14;57.74;100892.98;24490;1335;3029192;-62
2022/12/06 05:28:54;;;;;;;6.20;2.10;;;;;;;-8.18;57.69;100898.64;24491;1334;3025880;-63
2022/12/06 05:31:21;;;;;;;4.90;2.30;;;;;;;-8.22;57.46;100897.46;23895;1334;3026294;-65
2022/12/06 05:33:50;;;;;;;3.40;1.60;;;;;;;-8.16;57.32;100901.06;24475;1333;3026308;-64
2022/12/06 05:36:24;;;;;;;5.80;1.80;;;;;;;-8.20;57.69;100898.55;24526;1333;3028904;-64
2022/12/06 05:38:53;;;;;;;5.10;1.80;;;;;;;-8.14;57.77;100900.14;24511;1339;3053136;-65
2022/12/06 05:41:22;;;;;;;4.30;1.90;;;;;;;-8.04;57.18;100899.16;24469;1324;3026681;-64
2022/12/06 05:43:51;;;;;;;5.80;2.00;;;;;;;-8.01;57.08;100896.70;24535;1334;3052055;-63
2022/12/06 05:46:20;;;;;;;7.70;2.20;;;;;;;-8.00;56.90;100894.54;24469;1324;3025027;-63
2022/12/06 05:48:49;;;;;;;5.60;1.70;;;;;;;-8.05;56.69;100895.90;24500;1333;3055981;-64
2022/12/06 05:51:18;;;;;;;6.90;3.00;;;;;;;-7.99;57.03;100901.88;24475;1329;3028551;-62
2022/12/06 05:53:47;;;;;;;6.20;2.50;;;;;;;-7.97;56.94;100902.31;24503;1337;3048909;-62
2022/12/06 05:56:16;;;;;;;9.40;2.00;;;;;;;-7.89;56.55;100903.97;24489;1330;3026139;-64
2022/12/06 05:58:45;;;;;;;6.40;1.80;;;;;;;-7.78;56.56;100903.34;24488;1324;3068183;-65
2022/12/06 06:01:14;;;;;;;8.70;2.10;;;;;;;-7.74;56.26;100899.77;24490;1332;3028479;-65
2022/12/06 06:03:43;;;;;;;5.90;2.10;;;;;;;-7.66;55.97;100904.30;24505;1334;3049282;-63
2022/12/06 06:06:12;;;;;;;4.70;1.80;;;;;;;-7.57;55.81;100905.32;24584;1330;3026465;-65
2022/12/06 06:08:41;;;;;;;4.00;1.80;;;;;;;-7.56;55.43;100902.44;24509;1334;3051962;-64
2022/12/06 06:11:10;;;;;;;6.90;1.90;;;;;;;-7.42;54.91;100898.51;24466;1322;3028997;-64
2022/12/06 06:13:44;;;;;;;4.70;2.10;;;;;;;-7.43;54.62;100896.61;24507;1337;3051630;-63
2022/12/06 06:16:12;;;;;;;4.40;2.10;;;;;;;-7.37;54.37;100892.38;24508;1324;3028711;-65
2022/12/06 06:18:42;;;;;;;4.30;2.10;;;;;;;-7.36;54.47;100892.59;24537;1331;3052289;-64
2022/12/06 06:21:11;;;;;;;3.90;1.60;;;;;;;-7.22;54.69;100888.98;24509;1330;3029125;-64
2022/12/06 06:23:40;;;;;;;5.10;2.70;;;;;;;-7.18;53.68;100885.19;24510;1324;3051436;-64
2022/12/06 06:26:10;;;;;;;4.40;2.10;;;;;;;-7.25;54.08;100881.02;24555;1323;3029358;-64
2022/12/06 06:28:39;;;;;;;7.70;2.30;;;;;;;-7.12;54.51;100878.26;24540;1331;3056091;-63
2022/12/06 06:31:11;;;;;;;7.00;2.70;;;;;;;-7.00;53.77;100877.45;24543;1321;3029194;-64
2022/12/06 06:33:40;;;;;;;7.80;2.50;;;;;;;-7.08;54.01;100879.75;24522;1324;3029060;-64
2022/12/06 06:36:09;;;;;;;5.00;2.20;;;;;;;-7.00;53.70;100879.33;24547;1330;3056162;-63
2022/12/06 06:38:38;;;;;;;5.50;2.60;;;;;;;-6.80;53.35;100873.33;24538;1340;3028893;-63
2022/12/06 06:41:07;;;;;;;4.90;2.00;;;;;;;-6.65;52.96;100871.59;24517;1335;3050467;-64
2022/12/06 06:43:36;;;;;;;6.30;2.00;;;;;;;-6.61;52.37;100867.12;24467;1331;3027957;-63
2022/12/06 06:46:06;;;;;;;6.20;2.10;;;;;;;-6.64;52.65;100868.05;24518;1324;3068146;-65
2022/12/06 06:48:37;;;;;;;5.80;2.30;;;;;;;-6.54;52.20;100862.74;24482;1337;3028812;-69
2022/12/06 06:51:08;;;;;;;5.10;2.20;;;;;;;-6.44;51.84;100867.14;24554;1336;3028849;-65
2022/12/06 06:53:37;;;;;;;6.00;2.20;;;;;;;-6.37;52.22;100863.77;24545;1330;3027322;-67
2022/12/06 06:56:06;;;;;;;6.90;2.10;;;;;;;-6.25;51.79;100857.33;24611;1331;3024688;-66
2022/12/06 06:58:36;;;;;;;4.20;2.10;;;;;;;-6.24;51.16;100854.27;24523;1323;3026679;-64
2022/12/06 07:01:06;;;;;;;6.10;2.10;;;;;;;-6.12;51.41;100851.38;24531;1336;3052158;-61
2022/12/06 07:03:35;;;;;;;6.00;2.50;;;;;;;-6.02;51.10;100851.50;24563;1331;3025372;-63
2022/12/06 07:06:07;;;;;;;8.90;2.40;;;;;;;-5.94;50.66;100849.31;24505;1326;3028640;-64
2022/12/06 07:08:38;;;;;;;7.40;1.80;;;;;;;-5.85;50.70;100850.58;24498;1329;3052522;-61
2022/12/06 07:11:08;;;;;;;8.40;3.40;;;;;;;-5.74;50.13;100839.98;24480;1337;3028486;-62
2022/12/06 07:13:38;;;;;;;7.20;3.40;;;;;;;-5.75;49.85;100844.21;24507;1326;3028672;-63
2022/12/06 07:16:13;;;;;;;8.60;2.80;;;;;;;-5.65;49.64;100837.14;24568;1331;3027088;-66
2022/12/06 07:18:42;;;;;;;8.80;2.80;;;;;;;-5.53;49.42;100837.98;24500;1340;3049283;-60
2022/12/06 07:21:12;;;;;;;4.60;2.10;;;;;;;-5.43;48.70;100834.65;24551;1324;3028549;-63
2022/12/06 07:23:45;;;;;;;3.70;1.80;;;;;;;-5.22;48.33;100832.11;24554;1331;3052915;-64
2022/12/06 07:26:17;;;;;;;6.40;2.50;;;;;;;-5.17;48.29;100833.59;24505;1324;3028580;-66
2022/12/06 07:28:47;;;;;;;7.60;2.20;;;;;;;-5.07;48.14;100829.75;24461;1331;3051341;-64
2022/12/06 07:31:17;;;;;;;5.90;2.40;;;;;;;-5.12;47.60;100824.52;24482;1331;3027361;-63
2022/12/06 07:33:46;;;;;;;5.80;1.90;;;;;;;-4.99;47.48;100824.33;24561;1332;3026709;-66
2022/12/06 07:36:15;;;;;;;9.40;2.50;;;;;;;-4.83;47.26;100817.35;24670;1331;3026245;-70
2022/12/06 07:38:52;;;;;;;9.40;2.10;;;;;;;-4.75;46.94;100816.01;24597;1333;3051743;-65
2022/12/06 07:47:02;;;;;;;6.60;2.00;;;;;;;-4.59;46.20;100800.95;24555;1323;3050673;-67
2022/12/06 07:49:32;;;;;;;3.20;1.40;;;;;;;-4.47;45.70;100793.21;24572;1324;3028886;-65
2022/12/06 07:52:01;;;;;;;5.40;2.10;;;;;;;-4.34;46.02;100790.39;24512;1324;3068290;-66
2022/12/06 07:54:30;;;;;;;3.90;1.80;;;;;;;-4.25;45.89;100787.52;24574;1332;3026251;-66
2022/12/06 07:56:59;;;;;;;8.30;2.90;;;;;;;-4.11;45.75;100786.76;24538;1324;3027382;-66
2022/12/06 07:59:28;;;;;;;9.60;2.80;;;;;;;-4.02;45.91;100777.87;24555;1333;3068230;-68
2022/12/06 08:01:57;;;;;;;8.10;3.10;;;;;;;-3.92;45.53;100774.80;24551;1337;3026372;-66
2022/12/06 08:04:26;;;;;;;9.70;2.10;;;;;;;-3.78;44.97;100774.73;24492;1324;3025886;-64
2022/12/06 08:06:56;;;;;;;4.40;2.00;;;;;;;-3.75;44.66;100773.09;24529;1330;3068565;-65
2022/12/06 08:09:25;;;;;;;3.20;1.70;;;;;;;-3.81;44.48;100772.27;24536;1334;3026206;-68
2022/12/06 08:11:54;;;;;;;3.30;1.70;;;;;;;-3.70;44.05;100773.85;24652;1331;3028327;-65
2022/12/06 08:14:27;;;;;;;4.80;1.90;;;;;;;-3.57;44.58;100777.52;24496;1334;3068164;-66
2022/12/06 08:16:56;;;;;;;6.40;2.00;;;;;;;-3.52;43.98;100775.38;24491;1332;3025863;-65
2022/12/06 08:19:25;;;;;;;6.10;2.20;;;;;;;-3.32;43.95;100779.15;24531;1333;3049213;-64
2022/12/06 08:21:54;;;;;;;6.00;1.60;;;;;;;-3.21;43.61;100777.45;24488;1326;3027965;-60
2022/12/06 08:24:23;;;;;;;5.90;2.00;;;;;;;-3.10;43.05;100771.46;24505;1324;3050254;-63
2022/12/06 08:26:53;;;;;;;5.40;1.70;;;;;;;-2.95;42.95;100765.69;24492;1331;3028425;-61
2022/12/06 08:29:22;;;;;;;5.80;2.00;;;;;;;-2.91;42.14;100765.40;24481;1327;3028383;-64
2022/12/06 08:31:51;;;;;;;5.00;1.50;;;;;;;-2.89;41.71;100761.67;24569;1331;3028459;-65
2022/12/06 08:34:20;;;;;;;5.40;2.20;;;;;;;-2.73;41.59;100759.67;24463;1341;3049454;-65
2022/12/06 08:36:49;;;;;;;6.40;1.70;;;;;;;-2.74;41.57;100756.91;24546;1324;3026099;-64
2022/12/06 08:39:19;;;;;;;4.80;1.80;;;;;;;-2.56;41.25;100752.86;24467;1331;3052183;-63
2022/12/06 08:41:57;;;;;;;4.50;1.60;;;;;;;-2.44;40.86;100752.86;24527;1331;3028480;-65
2022/12/06 08:44:28;;;;;;;3.80;1.60;;;;;;;-2.35;40.42;100746.29;24522;1324;3051968;-65
2022/12/06 08:46:59;;;;;;;4.80;1.60;;;;;;;-2.36;39.99;100743.69;24526;1330;3028336;-67
2022/12/06 08:49:28;;;;;;;3.70;1.80;;;;;;;-2.39;39.98;100741.41;24531;1331;3026135;-63
2022/12/06 08:51:58;;;;;;;6.40;1.90;;;;;;;-2.21;39.68;100735.82;24758;1330;3026253;-64
2022/12/06 08:54:27;;;;;;;4.20;1.40;;;;;;;-2.19;39.62;100733.27;24494;1333;3026614;-63
2022/12/06 08:56:56;;;;;;;5.80;1.70;;;;;;;-2.07;39.66;100730.13;24476;1337;3049645;-65
2022/12/06 08:59:25;;;;;;;5.00;1.90;;;;;;;-2.05;39.52;100731.19;24487;1333;3028462;-64
2022/12/06 09:01:54;;;;;;;5.60;2.10;;;;;;;-1.99;39.67;100725.59;24550;1325;3052547;-62
2022/12/06 09:04:51;;;;;;;5.60;1.90;;;;;;;-1.95;39.23;100730.95;24522;1334;3050359;-61
2022/12/06 09:07:45;;;;;;;6.00;1.50;;;;;;;-1.83;39.23;100725.41;24535;1324;3069601;-64
2022/12/06 09:10:14;;;;;;;7.30;1.90;;;;;;;-1.75;39.50;100721.36;24537;1316;3028714;-65
2022/12/06 09:12:43;;;;;;;3.60;1.60;;;;;;;-1.73;39.19;100717.27;24526;1341;3048943;-64
2022/12/06 09:15:12;;;;;;;4.70;1.70;;;;;;;-1.63;39.19;100716.66;24495;1324;3028505;-62
2022/12/06 09:17:41;;;;;;;5.60;1.60;;;;;;;-1.56;39.33;100719.14;24559;1337;3052297;-64
2022/12/06 09:20:16;;;;;;;4.10;1.80;;;;;;;-1.46;39.63;100713.04;24497;1334;3026130;-64
2022/12/06 09:22:45;;;;;;;6.60;1.70;;;;;;;-1.46;39.41;100709.09;24529;1333;3050600;-61
2022/12/06 09:25:14;;;;;;;4.30;1.30;;;;;;;-1.38;39.33;100706.23;24485;1323;3028005;-61
2022/12/06 09:27:43;;;;;;;3.30;1.50;;;;;;;-1.32;38.98;100695.80;24522;1331;3053140;-64
2022/12/06 09:30:13;;;;;;;5.00;1.80;;;;;;;-1.19;39.23;100690.39;24579;1340;3029503;-62
2022/12/06 09:32:42;;;;;;;4.60;2.00;;;;;;;-1.17;39.54;100692.98;24463;1317;3028613;-62
2022/12/06 09:35:11;;;;;;;4.90;1.50;;;;;;;-1.05;39.34;100689.80;24480;1339;3052290;-63
2022/12/06 09:37:40;;;;;;;3.20;1.60;;;;;;;-0.99;39.28;100680.19;24433;1326;3028608;-62
2022/12/06 09:40:30;;;;;;;4.80;1.60;;;;;;;-0.94;38.91;100670.94;24475;1336;3051978;-61
2022/12/06 09:43:34;;;;;;;3.10;1.40;;;;;;;-0.88;39.07;100660.65;24517;1327;3054614;-62
2022/12/06 09:46:21;;;;;;;4.70;2.00;;;;;;;-0.92;38.81;100659.94;24459;1326;3051813;-62
2022/12/06 09:48:56;;;;;;;6.40;2.00;;;;;;;-0.83;39.19;100651.38;24490;1340;3052233;-61
2022/12/06 09:52:04;;;;;;;3.80;1.50;;;;;;;-0.91;38.95;100649.79;24488;1340;3049852;-64
2022/12/06 09:55:08;;;;;;;2.70;1.30;;;;;;;-0.72;38.78;100642.48;24702;1333;3068634;-66
2022/12/06 09:57:53;;;;;;;3.50;1.80;;;;;;;-0.62;38.82;100632.89;24581;1334;3049742;-63
2022/12/06 10:00:22;;;;;;;5.00;1.60;;;;;;;-0.54;38.34;100623.28;24534;1337;3056608;-61
2022/12/06 10:03:07;;;;;;;2.70;1.40;;;;;;;-0.51;38.87;100617.95;24516;1334;3030229;-63
2022/12/06 10:06:02;;;;;;;3.70;1.60;;;;;;;-0.32;38.75;100620.60;24482;1332;3052329;-63
2022/12/06 10:08:45;;;;;;;8.10;1.50;;;;;;;-0.29;38.74;100612.33;24477;1324;3051432;-61
2022/12/06 10:11:53;;;;;;;5.00;1.40;;;;;;;-0.17;38.64;100612.53;24524;1334;3052253;-62
2022/12/06 10:14:45;;;;;;;3.80;1.60;;;;;;;-0.19;38.34;100608.58;24497;1334;3050133;-64
2022/12/06 10:17:46;;;;;;;4.30;1.70;;;;;;;-0.22;38.59;100602.01;24462;1337;3070195;-66
2022/12/06 10:20:27;;;;;;;4.50;1.60;;;;;;;-0.09;38.82;100603.07;24535;1331;3051944;-64
2022/12/06 10:23:17;;;;;;;5.20;1.50;;;;;;;0.01;38.83;100601.02;24493;1324;3056750;-63
2022/12/06 10:26:13;;;;;;;4.90;1.80;;;;;;;0.15;38.82;100598.77;24500;1330;3053600;-64
2022/12/06 10:29:11;;;;;;;5.50;1.80;;;;;;;0.15;38.69;100590.00;24487;1325;3052947;-63
2022/12/06 10:31:55;;;;;;;5.90;2.30;;;;;;;0.21;38.67;100589.13;24505;1333;3051495;-63
2022/12/06 10:34:54;;;;;;;6.40;2.00;;;;;;;0.30;38.50;100590.33;24549;1323;3054381;-63
2022/12/06 10:37:45;;;;;;;8.40;1.80;;;;;;;0.55;38.32;100587.20;24531;1331;3049263;-63
2022/12/06 10:40:40;;;;;;;8.10;2.10;;;;;;;0.65;38.24;100580.80;24456;1324;3068674;-64
2022/12/06 10:43:35;;;;;;;8.50;2.00;;;;;;;0.62;37.88;100581.33;24479;1331;3049849;-65
2022/12/06 10:47:05;;;;;;;11.30;2.20;;;;;;;0.76;38.13;100581.29;24494;1331;3056436;-63
2022/12/06 10:49:51;;;;;;;7.20;2.00;;;;;;;0.79;37.42;100578.00;24572;1331;3050999;-65
2022/12/06 10:52:42;;;;;;;7.30;2.10;;;;;;;0.84;37.50;100576.62;24734;1327;3051577;-62
2022/12/06 10:55:35;;;;;;;5.80;1.90;;;;;;;0.96;37.51;100577.45;24814;1331;3051167;-63
2022/12/06 10:58:19;;;;;;;9.40;2.70;;;;;;;1.05;37.31;100572.41;24608;1331;3052873;-62
2022/12/06 11:00:54;;;;;;;9.50;2.90;;;;;;;0.99;37.28;100565.87;24496;1334;3049239;-61
2022/12/06 11:03:34;;;;;;;7.10;2.50;;;;;;;1.06;37.16;100569.28;24612;1322;3069060;-64
2022/12/06 11:06:07;;;;;;;6.70;2.00;;;;;;;1.22;37.07;100570.77;24502;1330;3050138;-62
2022/12/06 11:08:46;;;;;;;;;;;;;;;1.36;36.99;100573.48;24531;1331;3056705;-65
2022/12/06 11:11:24;;;;;;;6.50;2.10;;;;;;;1.37;36.95;100567.42;24507;1328;3052411;-66
2022/12/06 11:14:03;;;;;;;9.30;2.00;;;;;;;1.40;37.09;100561.37;24503;1333;3053233;-61
2022/12/06 11:16:40;;;;;;;6.90;1.90;;;;;;;1.44;36.86;100558.23;24492;1329;3051255;-63
2022/12/06 11:19:31;;;;;;;8.10;2.00;;;;;;;1.39;36.88;100556.36;24523;1330;3052438;-62
2022/12/06 11:22:33;;;;;;;9.60;2.00;;;;;;;1.60;36.56;100554.34;24535;1339;3051807;-63
2022/12/06 11:25:05;;;;;;;4.80;1.80;;;;;;;1.74;36.61;100552.70;24464;1330;3068789;-64
2022/12/06 11:27:41;;;;;;;9.60;2.30;;;;;;;1.82;36.39;100550.92;24517;1337;3026789;-59
2022/12/06 11:30:15;;;;;;;6.40;2.00;;;;;;;1.83;36.15;100547.11;24548;1324;3056195;-66
2022/12/06 11:32:45;;;;;;;5.50;1.50;;;;;;;1.88;35.80;100544.84;24501;1331;3050951;-62
2022/12/06 11:35:15;;;;;;;9.70;1.80;;;;;;;1.89;35.78;100544.98;24585;1331;3026210;-65
2022/12/06 11:38:10;;;;;;;7.30;1.60;;;;;;;1.94;35.59;100540.63;24539;1334;3051607;-66
2022/12/06 11:40:42;;;;;;;7.30;1.90;;;;;;;1.93;35.32;100538.39;24586;1323;3028943;-63
2022/12/06 11:43:23;;;;;;;5.40;2.00;;;;;;;2.07;35.69;100533.08;24588;1331;3025883;-63
2022/12/06 11:45:52;;;;;;;3.40;1.50;;;;;;;2.11;35.52;100528.39;24494;1333;3069444;-64
2022/12/06 11:48:22;;;;;;;6.80;2.40;;;;;;;2.04;35.26;100521.17;24474;1337;3028013;-62
2022/12/06 11:50:52;;;;;;;8.10;2.20;;;;;;;1.92;35.45;100524.58;24507;1327;3028799;-62
2022/12/06 11:53:29;;;;;;;8.50;2.20;;;;;;;1.93;35.34;100524.74;24523;1331;3027238;-66
2022/12/06 17:20:48;;;;;;;3.70;1.80;;;;;;;-2.33;35.96;100377.66;30760;1343;3013231;-67
2022/12/06 17:23:18;;;;;;;8.20;2.30;;;;;;;-2.30;35.85;100376.48;24455;1325;3068445;-64
2022/12/06 17:25:55;;;;;;;8.60;3.10;;;;;;;-2.37;35.59;100370.42;24381;1326;3028724;-64
2022/12/06 17:28:24;;;;;;;6.70;2.20;;;;;;;-2.45;35.35;100366.08;24451;1340;3049721;-64
2022/12/06 17:30:53;;;;;;;7.70;2.60;;;;;;;-2.44;35.62;100366.60;24361;1331;3027269;-64